Aerbrava en el facebook Aerbrava en el twitter Aerbrava Google+ Aerbrava instagram Aerbrava en el youtube Aerbrava tumblr Aerbrava flikr Aerbrava pinterest
Aerbrava in English aerbrava en Español
Escola de Pilots
Telèfon 972234126 972 23 41 26
 
Aerbrava in English aerbrava en Español
Aerbrava - meteorologia

Informació meteorològica aeronàutica

 

En aquest apartat apareix la informació meteorològica aeronàutica que és utilitzada a les pràctiques dels alumnes de l’Escola de Pilots del nostre centre durant la seva formació, pel que pot no ser actual i s’hauria d’utilitzar pel seu propi compte i risc. AERBRAVA no es fa responsable del seu ús.

 

TEMPS ACTUAL

Satèl·lit Meteorològic

sat24.com

Servei Meteorològic de Catalunya

 

LEGE 190800Z 27003KT 210V290 CAVOK 01/00 Q1015
LEGE 190730Z VRB04KT CAVOK 01/M00 Q1015
LEGE 190700Z 01004KT CAVOK 00/M00 Q1015
LEGE 190630Z 01005KT 330V030 CAVOK 01/00 Q1015
LEGE 190530Z 05003KT CAVOK M02/M02 Q1014
LEGE 190500Z 00000KT CAVOK M01/M02 Q1014
LEGE 190430Z 00000KT CAVOK M01/M02 Q1014
TAF LEGE 190500Z 1906/2006 VRB03KT 9999 FEW030 TX15/1913Z TNM01/1906Z   TEMPO 1912/1917 17010KT   PROB30   TEMPO 1906/1908 4000 BR

Aviation Weather

 
Aerbrava en el facebook Aerbrava en el twitter Aerbrava Google+ Aerbrava instagram Aerbrava en el youtube Aerbrava tumblr Aerbrava flikr Aerbrava pinterest

¡CSS Vàlid!